sim
Sign-in with your pilot id or email,
or register
Callsign
Passwort

Schedule Details

Flight Number: OEO7387
Departure: Miami International Airport (KMIA) at 22:55
Arrival: Munich Airport (EDDM) at 08:50

Weather Information
Getting current METAR information for KMIA 240953Z 11011KT 10SM FEW022 BKN035 BKN050 OVC250 27/22 A2992 RMK AO2 RAE07 SLP133 P0000 T02720222
Getting current METAR information for EDDM 240950Z 24007KT 9999 FEW025 18/14 Q1011 NOSIG

Schedule Frequency

Route Map